Detroit, Michigan
Traffic Map
Current Weather Conditions
Detroit, Michigan
Few Clouds
Few Clouds
61°
Feels Like: 61°
Wind Chill: 61° Ceiling: Unl
Heat Index: 61° Visibility: 15mi
Dew Point: 39° Wind: 16mph
Humidity: 45% Direction: 30° (NNE)
Pressure: 29.84in Gusts: 24mph
Raw Report DataCYQG 052300Z 03014G21KT 15SM FEW050 FEW280 16/04 A2984 RMK CU1CI1 CU TR CI TR SLP108 DENSITY ALT 1000FT
Traffic Incident Summary
Active as of:
Severity:
Category:
InformationThere was an issue retrieving the traffic information for this location. Please try a different location or try again shortly.
Advertisements
Track Severe Weather on mobile